Time,TemperatureF,DewpointF,PressureIn,WindDirection,WindDirectionDegrees,WindSpeedMPH,WindSpeedGustMPH,Humidity,HourlyPrecipIn,Conditions,Clouds,dailyrainin,SoftwareType,DateUTC
2013-04-15 00:08:00,15.8,10.0,29.86,West,265,2.0,-999.0,77,-99.99,,,0.00,weatherlink.com 1.10,2013-04-15 06:08:00,
2013-04-15 00:23:00,15.7,10.0,29.86,WSW,252,3.0,-999.0,79,-99.99,,,0.00,weatherlink.com 1.10,2013-04-15 06:23:00,
2013-04-15 00:38:00,15.1,11.0,29.85,West,267,5.0,-999.0,83,-99.99,,,0.00,weatherlink.com 1.10,2013-04-15 06:38:00,
2013-04-15 00:53:00,14.6,11.0,29.85,WNW,283,6.0,-999.0,87,-99.99,,,0.00,weatherlink.com 1.10,2013-04-15 06:53:00,
2013-04-15 01:54:00,14.3,12.0,29.84,WSW,258,5.0,-999.0,89,-99.99,,,0.00,weatherlink.com 1.10,2013-04-15 07:54:00,
2013-04-15 02:09:00,14.4,12.0,29.83,WSW,257,3.0,-999.0,89,-99.99,,,0.00,weatherlink.com 1.10,2013-04-15 08:09:00,
2013-04-15 02:24:00,14.4,12.0,29.84,SSW,204,5.0,-999.0,90,-99.99,,,0.00,weatherlink.com 1.10,2013-04-15 08:24:00,
2013-04-15 02:40:00,14.4,12.0,29.82,SW,223,2.0,-999.0,90,-99.99,,,0.00,weatherlink.com 1.10,2013-04-15 08:40:00,
2013-04-15 02:55:00,14.4,12.0,29.81,WSW,240,1.0,-999.0,90,-99.99,,,0.00,weatherlink.com 1.10,2013-04-15 08:55:00,
2013-04-15 03:10:00,14.6,12.0,29.80,WSW,240,0.0,-999.0,90,-99.99,,,0.00,weatherlink.com 1.10,2013-04-15 09:10:00,
2013-04-15 03:25:00,15.0,13.0,29.82,WSW,240,1.0,-999.0,90,-99.99,,,0.00,weatherlink.com 1.10,2013-04-15 09:25:00,
2013-04-15 03:40:00,14.8,12.0,29.79,East,88,2.0,-999.0,90,-99.99,,,0.00,weatherlink.com 1.10,2013-04-15 09:40:00,
2013-04-15 03:55:00,14.7,12.0,29.80,ENE,75,1.0,-999.0,90,-99.99,,,0.00,weatherlink.com 1.10,2013-04-15 09:55:00,
2013-04-15 04:10:00,14.5,12.0,29.79,NE,41,2.0,-999.0,90,-99.99,,,0.00,weatherlink.com 1.10,2013-04-15 10:10:00,
2013-04-15 04:26:00,14.5,12.0,29.79,ENE,61,1.0,-999.0,90,-99.99,,,0.00,weatherlink.com 1.10,2013-04-15 10:26:00,
2013-04-15 04:41:00,14.5,12.0,29.79,NE,36,2.0,-999.0,90,-99.99,,,0.00,weatherlink.com 1.10,2013-04-15 10:41:00,
2013-04-15 04:56:00,14.6,12.0,29.77,East,95,11.0,-999.0,90,-99.99,,,0.00,weatherlink.com 1.10,2013-04-15 10:56:00,
2013-04-15 05:11:00,14.6,12.0,29.76,ESE,117,6.0,-999.0,90,-99.99,,,0.00,weatherlink.com 1.10,2013-04-15 11:11:00,
2013-04-15 05:26:00,14.2,12.0,29.77,NE,42,9.0,-999.0,90,-99.99,,,0.00,weatherlink.com 1.10,2013-04-15 11:26:00,
2013-04-15 05:41:00,14.0,12.0,29.77,NNE,26,9.0,-999.0,90,-99.99,,,0.00,weatherlink.com 1.10,2013-04-15 11:41:00,
2013-04-15 06:12:00,13.9,12.0,29.78,NE,51,1.0,-999.0,90,-99.99,,,0.00,weatherlink.com 1.10,2013-04-15 12:12:00,
2013-04-15 06:27:00,14.8,12.0,29.79,SSE,168,4.0,-999.0,90,-99.99,,,0.00,weatherlink.com 1.10,2013-04-15 12:27:00,
2013-04-15 06:42:00,15.1,13.0,29.77,SSE,149,7.0,-999.0,90,-99.99,,,0.00,weatherlink.com 1.10,2013-04-15 12:42:00,
2013-04-15 07:12:00,15.1,13.0,29.78,SSE,149,2.0,-999.0,90,-99.99,,,0.00,weatherlink.com 1.10,2013-04-15 13:12:00,
2013-04-15 07:27:00,15.5,13.0,29.77,SE,128,2.0,-999.0,90,-99.99,,,0.00,weatherlink.com 1.10,2013-04-15 13:27:00,
2013-04-15 07:43:00,15.5,13.0,29.78,ESE,120,0.0,-999.0,90,-99.99,,,0.00,weatherlink.com 1.10,2013-04-15 13:43:00,
2013-04-15 07:58:00,14.4,12.0,29.78,NE,38,3.0,-999.0,90,-99.99,,,0.00,weatherlink.com 1.10,2013-04-15 13:58:00,
2013-04-15 08:13:00,14.3,12.0,29.80,North,355,6.0,-999.0,90,-99.99,,,0.00,weatherlink.com 1.10,2013-04-15 14:13:00,
2013-04-15 08:28:00,14.5,12.0,29.78,North,11,5.0,-999.0,90,-99.99,,,0.00,weatherlink.com 1.10,2013-04-15 14:28:00,
2013-04-15 08:43:00,15.0,13.0,29.78,NE,43,4.0,-999.0,90,-99.99,,,0.00,weatherlink.com 1.10,2013-04-15 14:43:00,
2013-04-15 08:58:00,15.4,13.0,29.79,NE,38,4.0,-999.0,90,-99.99,,,0.00,weatherlink.com 1.10,2013-04-15 14:58:00,
2013-04-15 09:14:00,17.2,15.0,29.79,South,172,1.0,-999.0,91,-99.99,,,0.00,weatherlink.com 1.10,2013-04-15 15:14:00,
2013-04-15 09:29:00,16.8,14.0,29.79,NNW,348,2.0,-999.0,90,-99.99,,,0.00,weatherlink.com 1.10,2013-04-15 15:29:00,
2013-04-15 09:44:00,15.9,14.0,29.79,North,355,5.0,-999.0,90,-99.99,,,0.00,weatherlink.com 1.10,2013-04-15 15:44:00,
2013-04-15 09:59:00,16.4,14.0,29.79,NNE,32,3.0,-999.0,91,-99.99,,,0.00,weatherlink.com 1.10,2013-04-15 15:59:00,
2013-04-15 10:14:00,16.8,14.0,29.78,North,5,7.0,-999.0,90,-99.99,,,0.00,weatherlink.com 1.10,2013-04-15 16:14:00,
2013-04-15 10:29:00,16.3,14.0,29.78,North,355,7.0,-999.0,91,-99.99,,,0.00,weatherlink.com 1.10,2013-04-15 16:29:00,
2013-04-15 10:44:00,16.3,14.0,29.77,North,355,6.0,-999.0,91,-99.99,,,0.00,weatherlink.com 1.10,2013-04-15 16:44:00,
2013-04-15 11:00:00,17.4,15.0,29.76,NNW,332,7.0,-999.0,91,-99.99,,,0.00,weatherlink.com 1.10,2013-04-15 17:00:00,
2013-04-15 11:15:00,14.7,12.0,29.77,North,355,10.0,-999.0,90,-99.99,,,0.00,weatherlink.com 1.10,2013-04-15 17:15:00,
2013-04-15 11:45:00,16.0,14.0,29.80,NNW,336,1.0,-999.0,90,-99.99,,,0.00,weatherlink.com 1.10,2013-04-15 17:45:00,
2013-04-15 12:00:00,17.6,16.0,29.79,NW,317,1.0,-999.0,91,-99.99,,,0.00,weatherlink.com 1.10,2013-04-15 18:00:00,
2013-04-15 12:15:00,18.4,16.0,29.80,NW,317,1.0,-999.0,91,-99.99,,,0.01,weatherlink.com 1.10,2013-04-15 18:15:00,
2013-04-15 12:31:00,19.0,17.0,29.80,WNW,284,1.0,-999.0,91,-99.99,,,0.01,weatherlink.com 1.10,2013-04-15 18:31:00,
2013-04-15 13:01:00,18.8,16.0,29.77,North,360,5.0,-999.0,90,-99.99,,,0.04,weatherlink.com 1.10,2013-04-15 19:01:00,
2013-04-15 13:16:00,19.4,18.0,29.82,NW,306,1.0,-999.0,92,-99.99,,,0.05,weatherlink.com 1.10,2013-04-15 19:16:00,
2013-04-15 13:31:00,20.1,18.0,29.81,NW,311,1.0,-999.0,91,-99.99,,,0.05,weatherlink.com 1.10,2013-04-15 19:31:00,
2013-04-15 13:46:00,22.5,21.0,29.81,NNW,329,2.0,-999.0,93,-99.99,,,0.06,weatherlink.com 1.10,2013-04-15 19:46:00,
2013-04-15 14:02:00,19.1,17.0,29.81,NW,306,3.0,-999.0,90,-99.99,,,0.07,weatherlink.com 1.10,2013-04-15 20:02:00,
2013-04-15 14:17:00,20.3,18.0,29.83,SSW,192,2.0,-999.0,91,-99.99,,,0.07,weatherlink.com 1.10,2013-04-15 20:17:00,
2013-04-15 14:32:00,20.2,18.0,29.82,NW,310,2.0,-999.0,91,-99.99,,,0.08,weatherlink.com 1.10,2013-04-15 20:32:00,
2013-04-15 14:47:00,21.1,19.0,29.83,SW,223,0.0,-999.0,91,-99.99,,,0.08,weatherlink.com 1.10,2013-04-15 20:47:00,
2013-04-15 15:02:00,19.7,17.0,29.82,North,351,0.0,-999.0,90,-99.99,,,0.08,weatherlink.com 1.10,2013-04-15 21:02:00,
2013-04-15 15:17:00,20.2,18.0,29.83,North,355,5.0,-999.0,90,-99.99,,,0.08,weatherlink.com 1.10,2013-04-15 21:17:00,
2013-04-15 15:33:00,17.4,15.0,29.84,North,360,6.0,-999.0,91,-99.99,,,0.09,weatherlink.com 1.10,2013-04-15 21:33:00,
2013-04-15 15:48:00,16.1,14.0,29.84,NNW,346,7.0,-999.0,90,-99.99,,,0.09,weatherlink.com 1.10,2013-04-15 21:48:00,
2013-04-15 16:03:00,15.5,13.0,29.83,NNW,348,6.0,-999.0,90,-99.99,,,0.09,weatherlink.com 1.10,2013-04-15 22:03:00,
2013-04-15 16:18:00,15.2,13.0,29.87,NNW,345,3.0,-999.0,90,-99.99,,,0.09,weatherlink.com 1.10,2013-04-15 22:18:00,
2013-04-15 16:33:00,15.5,13.0,29.86,North,355,4.0,-999.0,90,-99.99,,,0.09,weatherlink.com 1.10,2013-04-15 22:33:00,
2013-04-15 16:48:00,15.7,13.0,29.85,North,349,7.0,-999.0,90,-99.99,,,0.09,weatherlink.com 1.10,2013-04-15 22:48:00,
2013-04-15 17:03:00,14.5,12.0,29.87,NNW,348,5.0,-999.0,90,-99.99,,,0.09,weatherlink.com 1.10,2013-04-15 23:03:00,
2013-04-15 17:20:00,15.7,14.0,29.87,NNW,344,5.0,-999.0,91,-99.99,,,0.09,weatherlink.com 1.10,2013-04-15 23:20:00,
2013-04-15 17:34:00,14.9,13.0,29.88,North,355,5.0,-999.0,90,-99.99,,,0.09,weatherlink.com 1.10,2013-04-15 23:34:00,
2013-04-15 17:49:00,14.7,12.0,29.89,North,360,2.0,-999.0,90,-99.99,,,0.09,weatherlink.com 1.10,2013-04-15 23:49:00,
2013-04-15 18:05:00,15.0,13.0,29.91,NNE,26,2.0,-999.0,91,-99.99,,,0.09,weatherlink.com 1.10,2013-04-16 00:05:00,
2013-04-15 18:19:00,16.5,14.0,29.89,East,98,6.0,-999.0,91,-99.99,,,0.00,weatherlink.com 1.10,2013-04-16 00:19:00,
2013-04-15 18:34:00,17.0,15.0,29.91,ESE,119,2.0,-999.0,91,-99.99,,,0.00,weatherlink.com 1.10,2013-04-16 00:34:00,
2013-04-15 18:50:00,16.2,14.0,29.92,ESE,116,1.0,-999.0,91,-99.99,,,0.00,weatherlink.com 1.10,2013-04-16 00:50:00,
2013-04-15 19:05:00,16.5,14.0,29.91,ESE,119,5.0,-999.0,91,-99.99,,,0.00,weatherlink.com 1.10,2013-04-16 01:05:00,
2013-04-15 19:20:00,16.1,14.0,29.91,SSE,147,0.0,-999.0,90,-99.99,,,0.00,weatherlink.com 1.10,2013-04-16 01:20:00,
2013-04-15 19:35:00,15.8,14.0,29.94,SE,125,4.0,-999.0,91,-99.99,,,0.00,weatherlink.com 1.10,2013-04-16 01:35:00,
2013-04-15 19:50:00,15.4,13.0,29.93,ESE,103,4.0,-999.0,91,-99.99,,,0.00,weatherlink.com 1.10,2013-04-16 01:50:00,
2013-04-15 20:05:00,14.7,12.0,29.95,East,98,0.0,-999.0,90,-99.99,,,0.00,weatherlink.com 1.10,2013-04-16 02:05:00,
2013-04-15 20:21:00,13.8,11.0,29.96,East,98,4.0,-999.0,90,-99.99,,,0.00,weatherlink.com 1.10,2013-04-16 02:21:00,
2013-04-15 20:36:00,14.6,13.0,29.97,East,80,0.0,-999.0,91,-99.99,,,0.00,weatherlink.com 1.10,2013-04-16 02:36:00,
2013-04-15 20:51:00,16.0,14.0,29.97,ESE,121,4.0,-999.0,91,-99.99,,,0.00,weatherlink.com 1.10,2013-04-16 02:51:00,
2013-04-15 21:06:00,15.2,13.0,29.96,ESE,111,2.0,-999.0,91,-99.99,,,0.00,weatherlink.com 1.10,2013-04-16 03:06:00,
2013-04-15 21:21:00,13.9,11.0,29.97,North,11,8.0,-999.0,89,-99.99,,,0.00,weatherlink.com 1.10,2013-04-16 03:21:00,
2013-04-15 21:37:00,11.0,9.0,29.99,North,355,4.0,-999.0,90,-99.99,,,0.00,weatherlink.com 1.10,2013-04-16 03:37:00,
2013-04-15 21:52:00,10.9,8.0,29.99,North,5,5.0,-999.0,89,-99.99,,,0.00,weatherlink.com 1.10,2013-04-16 03:52:00,
2013-04-15 22:07:00,10.7,8.0,30.00,North,355,4.0,-999.0,89,-99.99,,,0.00,weatherlink.com 1.10,2013-04-16 04:07:00,
2013-04-15 22:22:00,10.3,8.0,29.98,North,360,10.0,-999.0,89,-99.99,,,0.00,weatherlink.com 1.10,2013-04-16 04:22:00,
2013-04-15 22:37:00,10.4,8.0,29.98,North,355,8.0,-999.0,89,-99.99,,,0.00,weatherlink.com 1.10,2013-04-16 04:37:00,
2013-04-15 22:52:00,11.0,9.0,29.98,North,355,11.0,-999.0,90,-99.99,,,0.00,weatherlink.com 1.10,2013-04-16 04:52:00,
2013-04-15 23:08:00,11.3,9.0,29.97,North,355,8.0,-999.0,90,-99.99,,,0.00,weatherlink.com 1.10,2013-04-16 05:08:00,
2013-04-15 23:23:00,11.4,9.0,29.94,North,355,11.0,-999.0,90,-99.99,,,0.00,weatherlink.com 1.10,2013-04-16 05:23:00,
2013-04-15 23:38:00,11.2,9.0,30.00,North,11,3.0,-999.0,89,-99.99,,,0.00,weatherlink.com 1.10,2013-04-16 05:38:00,
2013-04-15 23:53:00,11.2,9.0,30.00,North,5,5.0,-999.0,90,-99.99,,,0.00,weatherlink.com 1.10,2013-04-16 05:53:00,